createdAt,value
2022-10-20T00:02:09.631Z,3.40
2022-10-20T00:04:55.103Z,3.88
2022-10-20T00:07:40.566Z,3.60
2022-10-20T00:10:25.778Z,4.10
2022-10-20T00:13:10.785Z,3.72
2022-10-20T00:15:58.068Z,4.75
2022-10-20T00:18:43.234Z,3.67
2022-10-20T00:21:29.446Z,3.85
2022-10-20T00:24:15.015Z,3.95
2022-10-20T00:27:00.112Z,3.35
2022-10-20T00:29:47.982Z,3.85
2022-10-20T00:32:34.196Z,4.10
2022-10-20T00:35:19.664Z,3.60
2022-10-20T00:38:05.080Z,3.80
2022-10-20T00:40:50.502Z,3.70
2022-10-20T00:43:51.876Z,3.53
2022-10-20T00:46:40.456Z,3.75
2022-10-20T00:49:26.238Z,3.33
2022-10-20T00:52:11.699Z,3.58
2022-10-20T00:54:56.901Z,4.10
2022-10-20T00:57:44.486Z,3.13
2022-10-20T01:00:30.982Z,3.30
2022-10-20T01:03:22.638Z,3.20
2022-10-20T01:06:07.959Z,3.40
2022-10-20T01:08:54.656Z,3.88
2022-10-20T01:12:02.090Z,3.47
2022-10-20T01:14:57.939Z,3.17
2022-10-20T01:18:02.019Z,3.40
2022-10-20T01:21:16.115Z,3.40
2022-10-20T01:24:30.564Z,3.60
2022-10-20T01:27:35.521Z,3.60
2022-10-20T01:30:22.911Z,2.83
2022-10-20T01:33:11.373Z,3.42
2022-10-20T01:36:28.259Z,3.20
2022-10-20T01:39:24.353Z,3.20
2022-10-20T01:42:16.278Z,3.33
2022-10-20T01:45:08.811Z,3.20
2022-10-20T01:47:54.866Z,2.97
2022-10-20T01:50:43.702Z,3.13
2022-10-20T01:53:28.632Z,2.85
2022-10-20T01:56:30.683Z,2.67
2022-10-20T01:59:31.311Z,3.40
2022-10-20T02:02:23.262Z,3.10
2022-10-20T02:05:46.100Z,3.10
2022-10-20T02:08:46.516Z,3.38
2022-10-20T02:11:49.948Z,3.35
2022-10-20T02:14:37.441Z,3.28
2022-10-20T02:17:22.761Z,3.17
2022-10-20T02:20:10.042Z,3.30
2022-10-20T02:22:57.807Z,2.80
2022-10-20T02:25:43.170Z,3.28
2022-10-20T02:28:28.828Z,3.30
2022-10-20T02:31:14.258Z,3.28
2022-10-20T02:33:59.793Z,2.70
2022-10-20T02:36:45.331Z,3.15
2022-10-20T02:39:30.840Z,3.10
2022-10-20T02:42:17.259Z,3.20
2022-10-20T02:45:02.806Z,3.30
2022-10-20T02:47:48.333Z,3.17
2022-10-20T02:50:33.650Z,3.47
2022-10-20T02:53:18.905Z,3.47
2022-10-20T02:56:04.461Z,3.17
2022-10-20T02:58:49.962Z,3.10
2022-10-20T03:01:35.311Z,3.17
2022-10-20T03:04:20.798Z,3.42
2022-10-20T03:07:06.079Z,2.97
2022-10-20T03:09:51.403Z,3.45
2022-10-20T03:12:36.538Z,3.40
2022-10-20T03:15:21.806Z,3.47
2022-10-20T03:18:07.155Z,3.63
2022-10-20T03:20:53.450Z,3.72
2022-10-20T03:23:38.672Z,3.25
2022-10-20T03:26:24.258Z,2.92
2022-10-20T03:29:09.805Z,3.40
2022-10-20T03:31:55.195Z,3.10
2022-10-20T03:34:40.738Z,3.45
2022-10-20T03:37:25.744Z,3.50
2022-10-20T03:40:11.342Z,3.10
2022-10-20T03:42:56.771Z,2.97
2022-10-20T03:45:43.034Z,3.20
2022-10-20T03:48:28.602Z,3.60
2022-10-20T03:51:15.041Z,3.58
2022-10-20T03:54:00.300Z,3.33
2022-10-20T03:56:45.695Z,3.15
2022-10-20T03:59:30.778Z,3.40
2022-10-20T04:02:38.466Z,3.70
2022-10-20T04:05:23.756Z,3.42
2022-10-20T04:08:08.952Z,3.60
2022-10-20T04:10:54.289Z,3.78
2022-10-20T04:13:39.953Z,3.58
2022-10-20T04:16:25.502Z,3.90
2022-10-20T04:19:10.824Z,3.65
2022-10-20T04:21:56.137Z,4.10
2022-10-20T04:24:41.767Z,3.80
2022-10-20T04:27:28.345Z,3.38
2022-10-20T04:30:13.817Z,3.95
2022-10-20T04:32:59.000Z,3.92
2022-10-20T04:35:44.425Z,3.55
2022-10-20T04:38:30.907Z,4.07
2022-10-20T04:41:16.401Z,3.63
2022-10-20T04:44:01.871Z,3.92
2022-10-20T04:46:47.273Z,3.72
2022-10-20T04:49:32.404Z,4.30
2022-10-20T04:52:17.769Z,3.70
2022-10-20T04:55:03.603Z,4.28
2022-10-20T04:57:48.922Z,4.57
2022-10-20T05:00:34.514Z,4.68
2022-10-20T05:03:20.019Z,4.68
2022-10-20T05:06:13.241Z,3.88
2022-10-20T05:09:01.287Z,4.50
2022-10-20T05:11:46.736Z,4.03
2022-10-20T05:14:31.779Z,4.40
2022-10-20T05:17:17.242Z,5.10
2022-10-20T05:20:02.847Z,4.05
2022-10-20T05:22:47.976Z,4.20
2022-10-20T05:25:37.195Z,4.82
2022-10-20T05:28:22.614Z,5.18
2022-10-20T05:31:08.916Z,4.85
2022-10-20T05:33:56.266Z,4.63
2022-10-20T05:36:41.605Z,4.63
2022-10-20T05:39:26.795Z,4.22
2022-10-20T05:42:12.338Z,4.80
2022-10-20T05:44:57.856Z,4.72
2022-10-20T05:47:43.849Z,4.90
2022-10-20T05:50:28.960Z,5.40
2022-10-20T05:53:16.682Z,4.45
2022-10-20T05:56:04.411Z,5.57
2022-10-20T05:58:49.753Z,6.20
2022-10-20T06:02:04.354Z,5.65
2022-10-20T06:04:49.856Z,5.38
2022-10-20T06:07:35.031Z,5.88
2022-10-20T06:10:20.566Z,6.20
2022-10-20T06:13:05.814Z,5.28
2022-10-20T06:15:51.058Z,5.68
2022-10-20T06:18:38.776Z,5.28
2022-10-20T06:21:34.949Z,5.78
2022-10-20T06:24:20.595Z,5.63
2022-10-20T06:27:05.986Z,5.50
2022-10-20T06:29:51.371Z,5.90
2022-10-20T06:32:36.911Z,5.10
2022-10-20T06:35:22.274Z,5.78
2022-10-20T06:38:07.451Z,5.82
2022-10-20T06:40:53.094Z,6.60
2022-10-20T06:43:38.469Z,6.05
2022-10-20T06:46:24.076Z,6.05
2022-10-20T06:49:11.552Z,6.78
2022-10-20T06:51:57.105Z,7.20
2022-10-20T06:54:42.173Z,6.45
2022-10-20T06:57:27.483Z,7.20
2022-10-20T07:00:12.863Z,6.82
2022-10-20T07:02:58.348Z,6.32
2022-10-20T07:05:43.727Z,6.78
2022-10-20T07:08:31.066Z,7.60
2022-10-20T07:11:19.580Z,6.68
2022-10-20T07:14:05.203Z,6.90
2022-10-20T07:16:50.453Z,6.60
2022-10-20T07:19:35.613Z,7.22
2022-10-20T07:22:21.010Z,7.45
2022-10-20T07:25:07.229Z,7.45
2022-10-20T07:27:52.215Z,7.57
2022-10-20T07:30:40.171Z,6.50
2022-10-20T07:33:25.777Z,6.78
2022-10-20T07:36:13.202Z,6.78
2022-10-20T07:39:01.012Z,7.10
2022-10-20T07:41:47.858Z,6.88
2022-10-20T07:44:33.297Z,5.85
2022-10-20T07:47:18.418Z,6.63
2022-10-20T07:50:03.884Z,7.00
2022-10-20T07:52:53.145Z,6.40
2022-10-20T07:55:39.275Z,7.07
2022-10-20T07:58:24.831Z,6.50
2022-10-20T08:01:10.547Z,6.32
2022-10-20T08:03:55.979Z,7.18
2022-10-20T08:06:41.123Z,7.30
2022-10-20T08:09:26.549Z,6.55
2022-10-20T08:12:12.066Z,6.43
2022-10-20T08:14:57.550Z,6.75
2022-10-20T08:17:47.446Z,6.57
2022-10-20T08:20:34.318Z,6.70
2022-10-20T08:23:19.781Z,6.10
2022-10-20T08:26:10.517Z,5.90
2022-10-20T08:28:56.456Z,5.82
2022-10-20T08:31:44.112Z,5.78
2022-10-20T08:34:29.710Z,5.53
2022-10-20T08:37:15.184Z,4.65
2022-10-20T08:40:00.227Z,5.28
2022-10-20T08:42:47.218Z,6.25
2022-10-20T08:45:38.222Z,4.22
2022-10-20T08:48:27.754Z,5.10
2022-10-20T08:51:18.891Z,5.43
2022-10-20T08:54:11.374Z,5.20
2022-10-20T08:56:58.627Z,4.65
2022-10-20T08:59:44.297Z,4.63
2022-10-20T09:02:33.934Z,5.03
2022-10-20T09:05:31.503Z,5.53
2022-10-20T09:08:18.611Z,4.72
2022-10-20T09:11:07.978Z,5.18
2022-10-20T09:13:54.293Z,4.60
2022-10-20T09:16:59.223Z,4.70
2022-10-20T09:19:51.986Z,5.00
2022-10-20T09:22:37.455Z,5.13
2022-10-20T09:25:25.335Z,4.43
2022-10-20T09:28:22.424Z,4.68
2022-10-20T09:31:32.709Z,4.88
2022-10-20T09:34:29.807Z,5.07
2022-10-20T09:37:19.612Z,4.80
2022-10-20T09:42:57.119Z,5.03
2022-10-20T09:45:59.064Z,4.28
2022-10-20T09:48:47.876Z,4.82
2022-10-20T09:51:33.735Z,5.93
2022-10-20T09:54:20.314Z,4.13
2022-10-20T09:57:14.926Z,5.50
2022-10-20T10:00:04.546Z,4.65
2022-10-20T10:03:21.398Z,5.55
2022-10-20T10:06:31.822Z,4.30
2022-10-20T10:09:28.150Z,5.15
2022-10-20T10:12:13.229Z,4.50
2022-10-20T10:15:06.674Z,4.65
2022-10-20T10:17:52.342Z,4.05
2022-10-20T10:20:40.065Z,4.45
2022-10-20T10:23:27.699Z,3.65
2022-10-20T10:26:37.898Z,4.53
2022-10-20T10:29:34.706Z,3.38
2022-10-20T10:32:28.134Z,4.05
2022-10-20T10:35:19.836Z,3.40
2022-10-20T10:38:06.720Z,3.95
2022-10-20T10:41:01.177Z,3.58
2022-10-20T10:44:23.955Z,3.03
2022-10-20T10:47:15.059Z,3.17
2022-10-20T10:50:39.485Z,3.50
2022-10-20T10:53:29.779Z,2.85
2022-10-20T10:56:38.105Z,3.15
2022-10-20T10:59:31.804Z,3.03
2022-10-20T11:02:30.607Z,3.08
2022-10-20T11:05:25.461Z,3.60
2022-10-20T11:08:32.772Z,3.92
2022-10-20T11:11:42.469Z,3.67
2022-10-20T11:17:38.388Z,4.43
2022-10-20T11:20:42.630Z,4.72
2022-10-20T11:23:46.189Z,3.80
2022-10-20T11:26:34.892Z,3.70
2022-10-20T11:29:51.151Z,4.20
2022-10-20T11:33:00.391Z,2.75
2022-10-20T11:35:58.499Z,3.20
2022-10-20T11:38:49.230Z,3.08
2022-10-20T11:41:38.265Z,3.30
2022-10-20T11:44:36.642Z,2.97
2022-10-20T11:47:46.332Z,2.80
2022-10-20T11:50:33.094Z,2.80
2022-10-20T11:53:29.199Z,2.60
2022-10-20T11:56:35.492Z,2.42
2022-10-20T11:59:42.430Z,2.60
2022-10-20T12:03:09.430Z,2.72
2022-10-20T12:06:21.350Z,2.65
2022-10-20T12:09:25.823Z,2.50
2022-10-20T12:12:41.214Z,2.05
2022-10-20T12:15:28.095Z,2.80
2022-10-20T12:18:27.815Z,2.97
2022-10-20T12:24:03.127Z,2.53
2022-10-20T12:30:17.644Z,2.53
2022-10-20T12:33:18.125Z,2.30
2022-10-20T12:36:19.241Z,2.90
2022-10-20T12:39:17.736Z,3.38
2022-10-20T12:42:05.270Z,5.13
2022-10-20T12:44:51.984Z,3.92
2022-10-20T12:47:37.790Z,2.78
2022-10-20T12:50:36.836Z,2.88
2022-10-20T12:53:29.400Z,3.10
2022-10-20T12:56:20.834Z,2.85
2022-10-20T12:59:29.259Z,2.80
2022-10-20T13:02:17.679Z,2.53
2022-10-20T13:05:06.115Z,2.65
2022-10-20T13:07:56.968Z,2.55
2022-10-20T13:10:42.489Z,2.83
2022-10-20T13:13:43.139Z,2.50
2022-10-20T13:16:31.234Z,2.08
2022-10-20T13:19:24.330Z,2.78
2022-10-20T13:22:40.777Z,3.08
2022-10-20T13:25:46.399Z,2.40
2022-10-20T13:28:32.621Z,3.33
2022-10-20T13:31:42.530Z,3.03
2022-10-20T13:34:40.153Z,2.85
2022-10-20T13:37:39.107Z,2.83
2022-10-20T13:40:30.917Z,3.65
2022-10-20T13:43:34.448Z,2.90
2022-10-20T13:46:41.746Z,3.45
2022-10-20T13:50:14.163Z,2.67
2022-10-20T13:53:11.483Z,2.63
2022-10-20T13:56:15.312Z,4.10
2022-10-20T13:59:13.858Z,3.50
2022-10-20T14:02:03.684Z,3.22
2022-10-20T14:05:01.920Z,2.78
2022-10-20T14:07:47.344Z,5.82
2022-10-20T14:10:40.175Z,3.15
2022-10-20T14:13:31.807Z,2.70
2022-10-20T14:16:21.055Z,2.78
2022-10-20T14:19:11.933Z,3.38
2022-10-20T14:22:19.070Z,3.03
2022-10-20T14:25:05.447Z,3.30
2022-10-20T14:27:53.348Z,6.40
2022-10-20T14:30:41.114Z,2.88
2022-10-20T14:33:28.582Z,2.78
2022-10-20T14:36:42.439Z,3.00
2022-10-20T14:39:38.391Z,3.60
2022-10-20T14:42:31.106Z,2.90
2022-10-20T14:45:24.200Z,2.78
2022-10-20T14:48:16.377Z,3.60
2022-10-20T14:51:02.931Z,3.00
2022-10-20T14:53:48.567Z,2.40
2022-10-20T14:56:33.999Z,2.58
2022-10-20T14:59:23.141Z,2.97
2022-10-20T15:02:12.481Z,2.90
2022-10-20T15:05:21.430Z,3.28
2022-10-20T15:08:31.104Z,2.70
2022-10-20T15:14:16.259Z,3.10
2022-10-20T15:17:03.212Z,2.78
2022-10-20T15:19:48.629Z,3.33
2022-10-20T15:22:34.061Z,3.33
2022-10-20T15:25:19.554Z,3.33
2022-10-20T15:28:06.258Z,3.72
2022-10-20T15:30:51.965Z,4.07
2022-10-20T15:33:37.902Z,4.40
2022-10-20T15:36:32.889Z,4.10
2022-10-20T15:39:18.368Z,4.00
2022-10-20T15:42:10.854Z,4.43
2022-10-20T15:44:55.957Z,4.00
2022-10-20T15:47:41.679Z,4.32
2022-10-20T15:50:26.961Z,4.45
2022-10-20T15:53:12.408Z,4.32
2022-10-20T15:55:57.816Z,3.78
2022-10-20T15:58:42.861Z,4.63
2022-10-20T16:01:28.503Z,4.13
2022-10-20T16:04:26.316Z,4.65
2022-10-20T16:07:11.846Z,4.70
2022-10-20T16:09:56.973Z,5.05
2022-10-20T16:12:42.586Z,4.35
2022-10-20T16:15:30.381Z,5.03
2022-10-20T16:18:16.562Z,4.63
2022-10-20T16:21:04.502Z,5.03
2022-10-20T16:24:01.028Z,5.05
2022-10-20T16:26:46.380Z,5.40
2022-10-20T16:29:32.552Z,6.07
2022-10-20T16:32:17.938Z,5.85
2022-10-20T16:35:06.444Z,5.18
2022-10-20T16:37:51.913Z,5.97
2022-10-20T16:40:37.356Z,6.03
2022-10-20T16:43:22.614Z,5.57
2022-10-20T16:46:09.513Z,5.63
2022-10-20T16:48:57.141Z,5.65
2022-10-20T16:51:42.548Z,5.50
2022-10-20T16:54:28.295Z,6.00
2022-10-20T16:57:13.860Z,5.32
2022-10-20T17:00:00.334Z,6.28
2022-10-20T17:02:47.361Z,6.32
2022-10-20T17:05:32.970Z,8.52
2022-10-20T17:08:18.013Z,5.65
2022-10-20T17:11:06.612Z,6.80
2022-10-20T17:13:52.874Z,6.40
2022-10-20T17:16:40.058Z,6.22
2022-10-20T17:19:25.318Z,7.82
2022-10-20T17:25:01.309Z,6.40
2022-10-20T17:27:46.463Z,6.45
2022-10-20T17:30:37.985Z,6.28
2022-10-20T17:33:28.110Z,5.88
2022-10-20T17:36:17.086Z,6.15
2022-10-20T17:39:08.483Z,7.85
2022-10-20T17:41:54.509Z,6.90
2022-10-20T17:44:39.648Z,7.35
2022-10-20T17:47:25.107Z,6.35
2022-10-20T17:50:11.116Z,7.13
2022-10-20T17:52:59.044Z,6.70
2022-10-20T17:55:44.354Z,7.03
2022-10-20T17:58:29.811Z,6.35
2022-10-20T18:01:17.266Z,6.53
2022-10-20T18:04:05.720Z,6.07
2022-10-20T18:06:50.874Z,6.85
2022-10-20T18:09:35.950Z,6.10
2022-10-20T18:12:21.387Z,6.95
2022-10-20T18:15:07.179Z,6.78
2022-10-20T18:17:55.768Z,6.88
2022-10-20T18:20:57.460Z,6.80
2022-10-20T18:23:45.544Z,6.90
2022-10-20T18:26:35.573Z,7.13
2022-10-20T18:29:23.319Z,6.47
2022-10-20T18:32:08.607Z,7.05
2022-10-20T18:34:54.112Z,6.30
2022-10-20T18:37:40.449Z,6.55
2022-10-20T18:40:25.918Z,7.97
2022-10-20T18:43:11.186Z,8.05
2022-10-20T18:45:56.642Z,8.27
2022-10-20T18:48:42.303Z,6.70
2022-10-20T18:51:27.928Z,8.02
2022-10-20T18:54:13.520Z,7.22
2022-10-20T18:56:59.191Z,6.82
2022-10-20T18:59:44.329Z,7.43
2022-10-20T19:02:31.141Z,8.30
2022-10-20T19:05:16.675Z,8.20
2022-10-20T19:08:01.706Z,7.40
2022-10-20T19:10:47.391Z,7.35
2022-10-20T19:13:32.654Z,7.60
2022-10-20T19:16:21.966Z,7.28
2022-10-20T19:19:08.075Z,8.63
2022-10-20T19:21:54.042Z,8.48
2022-10-20T19:24:42.254Z,8.32
2022-10-20T19:27:28.026Z,7.80
2022-10-20T19:30:13.577Z,6.88
2022-10-20T19:32:58.782Z,6.90
2022-10-20T19:35:43.969Z,6.10
2022-10-20T19:38:34.542Z,9.25
2022-10-20T19:41:19.970Z,10.57
2022-10-20T19:44:12.408Z,8.07
2022-10-20T19:46:58.600Z,9.23
2022-10-20T19:49:44.771Z,8.43
2022-10-20T19:52:30.099Z,8.60
2022-10-20T19:55:15.468Z,8.30
2022-10-20T19:58:00.601Z,9.27
2022-10-20T20:00:50.522Z,8.95
2022-10-20T20:03:36.297Z,7.20
2022-10-20T20:06:22.627Z,7.63
2022-10-20T20:09:13.611Z,7.45
2022-10-20T20:11:59.314Z,7.80
2022-10-20T20:14:44.595Z,8.77
2022-10-20T20:17:30.107Z,9.43
2022-10-20T20:20:16.056Z,7.70
2022-10-20T20:23:01.067Z,6.97
2022-10-20T20:25:46.655Z,6.55
2022-10-20T20:28:34.932Z,6.43
2022-10-20T20:31:21.543Z,6.85
2022-10-20T20:34:08.696Z,7.10
2022-10-20T20:36:54.418Z,6.95
2022-10-20T20:39:40.047Z,6.82
2022-10-20T20:42:25.345Z,6.55
2022-10-20T20:45:11.313Z,7.25
2022-10-20T20:47:56.597Z,7.28
2022-10-20T20:50:42.288Z,7.00
2022-10-20T20:53:28.001Z,7.10
2022-10-20T20:56:15.514Z,7.45
2022-10-20T20:59:00.650Z,7.20
2022-10-20T21:01:48.884Z,8.35
2022-10-20T21:04:34.269Z,7.50
2022-10-20T21:07:19.432Z,7.38
2022-10-20T21:10:05.842Z,8.35
2022-10-20T21:12:52.839Z,8.32
2022-10-20T21:15:38.086Z,7.05
2022-10-20T21:18:23.447Z,6.93
2022-10-20T21:24:03.616Z,6.03
2022-10-20T21:26:51.521Z,7.28
2022-10-20T21:29:36.627Z,6.20
2022-10-20T21:32:21.896Z,6.60
2022-10-20T21:35:07.309Z,6.32
2022-10-20T21:37:52.641Z,6.22
2022-10-20T21:40:37.768Z,7.47
2022-10-20T21:43:23.229Z,6.30
2022-10-20T21:46:08.673Z,6.55
2022-10-20T21:49:09.703Z,7.35
2022-10-20T21:51:57.782Z,7.05
2022-10-20T21:54:43.524Z,6.78
2022-10-20T21:57:28.706Z,7.00
2022-10-20T22:00:14.665Z,6.00
2022-10-20T22:03:00.297Z,6.65
2022-10-20T22:05:45.544Z,6.55
2022-10-20T22:08:31.250Z,6.95
2022-10-20T22:11:23.556Z,6.88
2022-10-20T22:14:08.876Z,6.32
2022-10-20T22:16:56.572Z,6.20
2022-10-20T22:19:42.220Z,7.28
2022-10-20T22:22:30.945Z,6.60
2022-10-20T22:25:16.727Z,5.60
2022-10-20T22:28:02.039Z,5.85
2022-10-20T22:30:47.485Z,6.63
2022-10-20T22:33:33.000Z,7.05
2022-10-20T22:36:19.002Z,6.57
2022-10-20T22:39:05.483Z,6.43
2022-10-20T22:41:50.682Z,8.18
2022-10-20T22:44:35.978Z,7.57
2022-10-20T22:47:21.648Z,7.88
2022-10-20T22:50:07.472Z,6.82
2022-10-20T22:52:52.979Z,7.32
2022-10-20T22:55:38.352Z,7.28
2022-10-20T22:58:23.932Z,6.93
2022-10-20T23:01:19.978Z,6.70
2022-10-20T23:04:05.342Z,7.28
2022-10-20T23:06:50.667Z,7.75
2022-10-20T23:09:35.844Z,6.90
2022-10-20T23:12:21.214Z,7.93
2022-10-20T23:15:07.539Z,6.50
2022-10-20T23:17:53.390Z,7.13
2022-10-20T23:20:40.126Z,7.93
2022-10-20T23:23:26.001Z,7.75
2022-10-20T23:26:12.224Z,7.20
2022-10-20T23:28:57.628Z,7.38
2022-10-20T23:31:43.028Z,8.10
2022-10-20T23:34:28.257Z,6.93
2022-10-20T23:37:13.452Z,6.70
2022-10-20T23:39:59.002Z,7.32
2022-10-20T23:42:44.285Z,7.60
2022-10-20T23:45:30.916Z,7.07
2022-10-20T23:51:05.758Z,7.50
2022-10-20T23:53:51.673Z,7.55
2022-10-20T23:56:36.784Z,8.23
2022-10-20T23:59:22.169Z,8.00
